Time;durP1;ratioP1;P1;durP2;ratioP2;P2;SDS_P1;SDS_P2;PMS_P1;PMS_P2;Temp;Humidity;BMP_temperature;BMP_pressure;BME280_temperature;BME280_humidity;BME280_pressure;Samples;Min_cycle;Max_cycle;Signal;HPM_P1;HPM_P2
2021/07/16 00:02:14;;;;;;;14.95;10.23;;;;;;;19.12;82.78;101468.72;5085859;28;20035;-49
2021/07/16 00:04:40;;;;;;;13.55;9.90;;;;;;;19.11;82.98;101469.84;5086800;28;20123;-51
2021/07/16 00:07:05;;;;;;;13.65;9.88;;;;;;;19.14;82.67;101468.44;5087443;28;20027;-49
2021/07/16 00:09:31;;;;;;;14.05;10.30;;;;;;;19.14;82.86;101465.72;5085781;28;20016;-50
2021/07/16 00:11:56;;;;;;;12.65;8.63;;;;;;;19.12;83.04;101467.91;5086617;28;20328;-51
2021/07/16 00:14:22;;;;;;;11.50;8.48;;;;;;;19.06;83.67;101467.19;5086362;28;20063;-50
2021/07/16 00:16:47;;;;;;;15.80;10.45;;;;;;;19.06;84.04;101477.22;5085957;28;20491;-49
2021/07/16 00:19:13;;;;;;;12.70;9.43;;;;;;;19.00;84.42;101477.25;5087550;28;20027;-50
2021/07/16 00:21:38;;;;;;;11.10;8.95;;;;;;;19.00;84.15;101476.44;5086220;28;20028;-53
2021/07/16 00:24:04;;;;;;;15.43;11.07;;;;;;;18.98;83.91;101479.44;5087332;28;20020;-50
2021/07/16 00:26:30;;;;;;;17.15;11.25;;;;;;;18.96;83.74;101487.09;5083688;28;20028;-50
2021/07/16 00:28:56;;;;;;;18.70;11.85;;;;;;;18.88;84.18;101486.91;5086632;28;20028;-50
2021/07/16 00:31:22;;;;;;;15.48;10.25;;;;;;;18.90;84.37;101498.28;5085541;28;20301;-50
2021/07/16 00:33:47;;;;;;;21.02;12.75;;;;;;;18.89;84.02;101497.47;5086564;28;20114;-49
2021/07/16 00:36:13;;;;;;;15.18;11.30;;;;;;;18.86;84.26;101500.78;5084912;28;20027;-50
2021/07/16 00:38:38;;;;;;;16.98;10.43;;;;;;;18.84;83.93;101494.78;5086932;28;20035;-50
2021/07/16 00:41:04;;;;;;;19.75;11.65;;;;;;;18.80;83.63;101506.50;5086706;28;20164;-49
2021/07/16 00:43:30;;;;;;;17.00;10.77;;;;;;;18.77;83.68;101507.09;5084567;28;20027;-49
2021/07/16 00:45:56;;;;;;;16.02;10.98;;;;;;;18.69;83.11;101513.94;5086429;28;20425;-49
2021/07/16 00:48:22;;;;;;;17.17;10.65;;;;;;;18.65;83.19;101510.97;5085541;28;20047;-50
2021/07/16 00:50:48;;;;;;;19.10;12.48;;;;;;;18.67;82.98;101516.94;5085932;28;20486;-49
2021/07/16 00:53:17;;;;;;;22.33;14.23;;;;;;;18.64;83.23;101516.69;5083740;28;20258;-50
2021/07/16 00:55:43;;;;;;;26.33;15.73;;;;;;;18.66;83.68;101523.44;5085956;28;20392;-49
2021/07/16 00:58:10;;;;;;;29.63;17.75;;;;;;;18.65;84.05;101518.28;5086252;28;20024;-52
2021/07/16 01:00:37;;;;;;;23.83;16.38;;;;;;;18.66;84.20;101522.63;5085151;28;20473;-50
2021/07/16 01:03:03;;;;;;;23.75;15.63;;;;;;;18.66;84.46;101522.63;5085410;28;20036;-49
2021/07/16 01:05:29;;;;;;;21.20;14.68;;;;;;;18.69;84.67;101528.31;5084966;28;20028;-49
2021/07/16 01:07:54;;;;;;;19.38;13.55;;;;;;;18.62;85.40;101530.50;5082050;28;20078;-51
2021/07/16 01:10:22;;;;;;;19.60;13.43;;;;;;;18.63;85.19;101531.34;5086067;28;20034;-49
2021/07/16 01:12:51;;;;;;;23.63;13.63;;;;;;;18.62;85.03;101538.66;5085512;28;20047;-49
2021/07/16 01:15:19;;;;;;;19.92;12.77;;;;;;;18.58;84.35;101537.59;5086125;28;20103;-51
2021/07/16 01:17:45;;;;;;;21.50;12.93;;;;;;;18.51;84.42;101547.97;5085411;28;20051;-50
2021/07/16 01:20:18;;;;;;;20.77;12.80;;;;;;;18.46;84.05;101541.75;5083081;28;20055;-52
2021/07/16 01:22:45;;;;;;;19.23;12.27;;;;;;;18.43;84.11;101535.78;5083376;28;20485;-50
2021/07/16 01:25:18;;;;;;;20.13;12.65;;;;;;;18.44;84.11;101550.16;5083618;28;20194;-51
2021/07/16 01:27:48;;;;;;;20.70;11.95;;;;;;;18.37;84.25;101536.91;5085210;28;20122;-50
2021/07/16 01:30:17;;;;;;;22.17;11.30;;;;;;;18.35;83.94;101535.59;5083561;28;20024;-51
2021/07/16 01:32:44;;;;;;;13.18;10.00;;;;;;;18.31;83.74;101538.06;5083873;28;20035;-51
2021/07/16 01:35:11;;;;;;;17.25;10.63;;;;;;;18.31;83.71;101535.34;5085691;28;20504;-52
2021/07/16 01:37:36;;;;;;;17.50;11.18;;;;;;;18.30;83.63;101535.59;5082708;28;20047;-49
2021/07/16 01:40:08;;;;;;;16.75;11.70;;;;;;;18.23;84.07;101530.50;5085445;28;20024;-53
2021/07/16 01:42:35;;;;;;;17.27;11.82;;;;;;;18.28;84.34;101529.63;5084653;28;20588;-50
2021/07/16 01:45:04;;;;;;;16.88;13.05;;;;;;;18.30;84.14;101525.56;5085290;28;20205;-49
2021/07/16 01:47:30;;;;;;;18.95;13.00;;;;;;;18.30;84.42;101524.75;5084454;28;20024;-50
2021/07/16 01:49:56;;;;;;;21.90;12.60;;;;;;;18.31;84.64;101527.22;5085186;28;20027;-50
2021/07/16 01:52:21;;;;;;;19.80;14.38;;;;;;;18.32;84.99;101523.41;5059382;28;20488;-52
2021/07/16 01:54:47;;;;;;;17.55;13.63;;;;;;;18.35;85.21;101522.03;5084963;28;20573;-50
2021/07/16 01:57:12;;;;;;;21.33;13.85;;;;;;;18.36;85.50;101505.47;5084905;28;20045;-50
2021/07/16 01:59:38;;;;;;;16.80;12.30;;;;;;;18.38;85.82;101497.03;5084951;28;20675;-50
2021/07/16 02:02:04;;;;;;;20.83;13.27;;;;;;;18.38;85.82;101499.75;5083101;28;20019;-51
2021/07/16 02:04:29;;;;;;;22.58;13.30;;;;;;;18.39;86.09;101504.09;5083607;28;20024;-51
2021/07/16 02:06:57;;;;;;;19.27;12.02;;;;;;;18.35;86.99;101516.59;5082355;28;20028;-52
2021/07/16 02:09:22;;;;;;;22.75;13.27;;;;;;;18.30;88.00;101512.00;5084416;28;20031;-50
2021/07/16 02:11:48;;;;;;;23.58;12.82;;;;;;;18.31;87.95;101513.63;5084324;28;20032;-50
2021/07/16 02:14:13;;;;;;;17.45;12.50;;;;;;;18.35;87.63;101517.41;5081542;28;20485;-50
2021/07/16 02:16:39;;;;;;;27.65;13.23;;;;;;;18.37;87.36;101509.78;5083520;28;20128;-51
2021/07/16 02:19:05;;;;;;;25.42;13.90;;;;;;;18.22;88.17;101518.03;5083724;28;20067;-49
2021/07/16 02:21:31;;;;;;;19.20;13.00;;;;;;;18.23;88.32;101518.84;5080126;28;21043;-50
2021/07/16 02:23:56;;;;;;;21.17;11.93;;;;;;;18.28;87.86;101516.88;5085020;28;20024;-51
2021/07/16 02:26:22;;;;;;;19.13;13.05;;;;;;;18.31;87.72;101502.78;5083327;28;20039;-53
2021/07/16 02:28:47;;;;;;;23.63;13.63;;;;;;;18.35;87.73;101505.75;5084763;28;20094;-50
2021/07/16 02:31:13;;;;;;;22.20;14.52;;;;;;;18.31;87.70;101516.34;5084846;28;20092;-50
2021/07/16 02:33:40;;;;;;;24.90;12.82;;;;;;;18.29;87.54;101512.28;5083480;28;20039;-52
2021/07/16 02:36:08;;;;;;;25.65;14.75;;;;;;;18.27;87.69;101509.84;5083104;28;20027;-51
2021/07/16 02:38:34;;;;;;;22.20;12.80;;;;;;;18.23;88.58;101518.84;5084106;28;20932;-50
2021/07/16 02:41:00;;;;;;;20.98;12.35;;;;;;;18.23;87.86;101519.66;5084688;28;20166;-52
2021/07/16 02:43:26;;;;;;;18.17;11.77;;;;;;;18.26;87.37;101512.84;5083664;28;20107;-49
2021/07/16 02:45:52;;;;;;;17.52;12.23;;;;;;;18.26;86.79;101523.69;5084555;28;20032;-50
2021/07/16 02:48:18;;;;;;;25.73;13.07;;;;;;;18.20;86.68;101530.25;5084534;28;20237;-51
2021/07/16 02:50:46;;;;;;;18.55;12.88;;;;;;;18.15;86.26;101525.66;5082023;28;20028;-50
2021/07/16 02:53:14;;;;;;;18.58;10.82;;;;;;;18.13;86.15;101522.41;5081400;28;20016;-49
2021/07/16 02:55:40;;;;;;;17.05;11.30;;;;;;;18.05;86.58;101518.38;5080745;28;20035;-51
2021/07/16 02:58:07;;;;;;;15.30;11.32;;;;;;;18.04;86.21;101515.97;5085088;28;20024;-49
2021/07/16 03:00:33;;;;;;;25.08;13.05;;;;;;;18.03;86.02;101515.16;5083646;28;20120;-50
2021/07/16 03:02:59;;;;;;;19.42;12.23;;;;;;;17.99;86.61;101518.69;5084309;28;20491;-51
2021/07/16 03:05:29;;;;;;;19.90;12.48;;;;;;;17.95;86.60;101529.25;5081615;28;20028;-50
2021/07/16 03:07:57;;;;;;;20.30;12.63;;;;;;;17.98;86.53;101528.72;5083286;28;20035;-50
2021/07/16 03:10:30;;;;;;;16.63;12.07;;;;;;;17.98;86.12;101525.22;5083051;28;20432;-49
2021/07/16 03:12:57;;;;;;;21.02;11.80;;;;;;;17.98;86.00;101536.06;5080865;28;20038;-51
2021/07/16 03:15:25;;;;;;;16.58;11.07;;;;;;;17.98;85.99;101534.16;5083982;28;20024;-50
2021/07/16 03:17:50;;;;;;;28.77;15.68;;;;;;;17.73;88.14;101532.34;5081936;28;20028;-49
2021/07/16 03:20:43;;;;;;;24.58;13.18;;;;;;;17.71;88.37;101531.81;5084083;28;20024;-49
2021/07/16 03:23:11;;;;;;;20.85;12.45;;;;;;;17.86;87.22;101528.25;5080447;28;20044;-51
2021/07/16 03:25:38;;;;;;;14.88;11.65;;;;;;;17.95;86.89;101534.69;5084047;28;20461;-49
2021/07/16 03:28:05;;;;;;;22.58;13.38;;;;;;;18.00;86.51;101544.72;5084200;28;20039;-49
2021/07/16 03:30:31;;;;;;;20.23;12.98;;;;;;;18.01;86.31;101541.72;5085321;28;20202;-49
2021/07/16 03:32:58;;;;;;;18.02;12.00;;;;;;;18.03;86.06;101542.25;5085009;28;20024;-51
2021/07/16 03:35:25;;;;;;;14.77;11.07;;;;;;;18.05;85.71;101542.78;5086943;28;20040;-49
2021/07/16 03:37:52;;;;;;;17.25;11.45;;;;;;;18.11;85.46;101546.28;5085635;28;20039;-52
2021/07/16 03:40:21;;;;;;;24.17;15.38;;;;;;;18.05;87.37;101542.78;5088106;28;20047;-50
2021/07/16 03:42:46;;;;;;;26.73;17.08;;;;;;;18.05;89.08;101533.84;5087672;28;20077;-52
2021/07/16 03:45:14;;;;;;;22.92;14.30;;;;;;;18.17;88.66;101538.94;5087460;28;20306;-50
2021/07/16 03:47:41;;;;;;;23.48;13.48;;;;;;;18.29;87.76;101545.63;5085259;28;20533;-53
2021/07/16 03:50:07;;;;;;;29.77;16.08;;;;;;;18.40;87.12;101540.97;5087576;28;20027;-51
2021/07/16 03:52:32;;;;;;;25.92;14.40;;;;;;;18.51;87.30;101549.88;5086089;28;20066;-52
2021/07/16 03:54:58;;;;;;;27.42;16.75;;;;;;;18.39;88.66;101556.44;5087448;28;20032;-49
2021/07/16 03:57:24;;;;;;;21.15;13.95;;;;;;;18.41;88.27;101550.72;5086770;28;20028;-50
2021/07/16 03:59:49;;;;;;;27.98;18.10;;;;;;;18.20;91.59;101543.81;5087316;28;20043;-49
2021/07/16 04:02:15;;;;;;;27.58;16.88;;;;;;;18.29;90.81;101537.50;5085579;28;20059;-49
2021/07/16 04:04:40;;;;;;;24.73;15.63;;;;;;;18.37;90.67;101541.53;5086259;28;20123;-50
2021/07/16 04:07:08;;;;;;;20.65;13.38;;;;;;;18.41;90.24;101542.59;5087319;28;20043;-49
2021/07/16 04:09:34;;;;;;;33.45;16.08;;;;;;;18.69;88.88;101541.91;5086785;28;20052;-50
2021/07/16 04:12:16;;;;;;;20.65;12.98;;;;;;;18.90;87.96;101547.97;5086922;28;20040;-50
2021/07/16 04:14:47;;;;;;;25.42;13.30;;;;;;;19.11;87.03;101551.31;5086221;28;20028;-51
2021/07/16 04:17:16;;;;;;;24.05;14.02;;;;;;;19.26;86.45;101553.09;5083125;28;20081;-50
2021/07/16 04:19:43;;;;;;;26.33;14.50;;;;;;;19.40;85.88;101556.75;5086748;28;20106;-49
2021/07/16 04:22:09;;;;;;;25.83;13.10;;;;;;;19.58;85.21;101556.03;5085888;28;20035;-52
2021/07/16 04:24:39;;;;;;;24.63;14.13;;;;;;;19.56;85.68;101552.78;5086416;28;20029;-50
2021/07/16 04:27:06;;;;;;;23.55;14.35;;;;;;;19.66;85.27;101557.31;5087257;28;20111;-49
2021/07/16 04:29:32;;;;;;;26.75;14.20;;;;;;;19.74;85.04;101566.72;5085949;28;20074;-49
2021/07/16 04:32:00;;;;;;;19.08;13.20;;;;;;;19.85;84.99;101565.50;5085636;28;21062;-49
2021/07/16 04:34:28;;;;;;;25.42;13.95;;;;;;;19.87;84.99;101560.59;5085527;28;20020;-50
2021/07/16 04:36:54;;;;;;;25.33;16.08;;;;;;;19.88;85.22;101557.59;5085032;28;20023;-50
2021/07/16 04:39:20;;;;;;;22.10;14.93;;;;;;;19.96;85.05;101547.97;5086524;28;20378;-51
2021/07/16 04:41:45;;;;;;;22.00;15.07;;;;;;;20.12;84.10;101548.59;5085138;28;20024;-49
2021/07/16 04:44:11;;;;;;;27.25;14.15;;;;;;;20.25;83.85;101552.47;5086624;28;20027;-51
2021/07/16 04:46:36;;;;;;;21.38;13.15;;;;;;;20.33;83.43;101554.56;5084814;28;20028;-50
2021/07/16 04:49:02;;;;;;;22.75;13.48;;;;;;;20.43;83.09;101559.88;5087009;28;20034;-49
2021/07/16 04:51:29;;;;;;;24.10;13.48;;;;;;;20.51;82.75;101568.22;5085001;28;20932;-49
2021/07/16 04:53:56;;;;;;;21.50;14.15;;;;;;;20.59;82.75;101565.91;5084726;28;20035;-49
2021/07/16 04:56:22;;;;;;;22.33;15.27;;;;;;;20.70;82.31;101564.66;5085946;28;20492;-50
2021/07/16 04:58:48;;;;;;;27.38;15.02;;;;;;;20.81;82.31;101575.06;5086043;28;20035;-50
2021/07/16 05:01:14;;;;;;;20.67;14.15;;;;;;;20.94;81.69;101570.78;5082373;28;20031;-50
2021/07/16 05:03:39;;;;;;;24.80;14.63;;;;;;;21.06;81.22;101568.41;5085543;28;21312;-52
2021/07/16 05:06:05;;;;;;;20.73;13.02;;;;;;;21.18;80.71;101570.66;5086099;28;20017;-50
2021/07/16 05:08:30;;;;;;;27.23;14.57;;;;;;;21.08;81.25;101563.47;5084030;28;20106;-49
2021/07/16 05:10:56;;;;;;;27.98;16.05;;;;;;;20.79;82.32;101569.13;5086476;28;20063;-52
2021/07/16 05:13:22;;;;;;;20.40;14.15;;;;;;;20.99;82.08;101562.53;5084880;28;20038;-53
2021/07/16 05:15:48;;;;;;;27.38;16.52;;;;;;;20.99;82.34;101559.81;5084766;28;20036;-50
2021/07/16 05:18:13;;;;;;;25.80;16.63;;;;;;;21.25;81.53;101571.13;5086277;28;20040;-53
2021/07/16 05:20:39;;;;;;;23.13;15.15;;;;;;;21.51;80.88;101567.91;5085117;28;20057;-50
2021/07/16 05:23:04;;;;;;;25.23;14.55;;;;;;;21.79;80.03;101568.75;5085141;28;20016;-50
2021/07/16 05:25:31;;;;;;;26.58;15.65;;;;;;;22.01;79.18;101575.09;5084721;28;20103;-49
2021/07/16 05:27:57;;;;;;;19.50;14.68;;;;;;;22.22;78.87;101588.34;5085715;28;20043;-50
2021/07/16 05:30:22;;;;;;;20.10;14.88;;;;;;;22.34;78.61;101588.63;5083264;28;20032;-53
2021/07/16 05:32:48;;;;;;;26.00;15.88;;;;;;;22.50;78.50;101589.91;5084941;28;20036;-53
2021/07/16 05:35:14;;;;;;;25.15;14.63;;;;;;;22.64;78.43;101589.06;5085231;28;20466;-50
2021/07/16 05:37:39;;;;;;;25.63;15.57;;;;;;;22.79;78.05;101586.75;5084574;28;20355;-50
2021/07/16 05:40:05;;;;;;;25.92;15.48;;;;;;;22.84;78.40;101585.88;5085293;28;20028;-51
2021/07/16 05:42:31;;;;;;;28.02;15.50;;;;;;;22.93;77.60;101584.00;5084055;28;20024;-54
2021/07/16 05:44:57;;;;;;;29.55;16.17;;;;;;;23.13;76.54;101594.41;5083407;28;20024;-50
2021/07/16 05:47:22;;;;;;;21.10;15.98;;;;;;;23.27;76.28;101585.34;5083545;28;20073;-54
2021/07/16 05:49:50;;;;;;;23.17;15.02;;;;;;;23.43;75.96;101592.00;5085101;28;20521;-51
2021/07/16 05:52:15;;;;;;;21.58;15.65;;;;;;;23.59;75.49;101589.72;5083912;28;20118;-51
2021/07/16 05:54:41;;;;;;;24.15;15.35;;;;;;;23.76;74.95;101598.00;5084187;28;20485;-53
2021/07/16 05:57:06;;;;;;;30.17;16.92;;;;;;;23.92;74.75;101598.38;5085601;28;20070;-50
2021/07/16 05:59:32;;;;;;;31.45;16.77;;;;;;;23.99;74.74;101593.22;5083448;28;20031;-51
2021/07/16 06:01:59;;;;;;;24.15;16.85;;;;;;;24.10;74.17;101591.81;5084925;28;20539;-50
2021/07/16 06:04:24;;;;;;;28.35;17.13;;;;;;;24.26;73.16;101600.38;5084423;28;20031;-52
2021/07/16 06:06:50;;;;;;;28.15;18.10;;;;;;;24.39;72.62;101605.72;5083980;28;20679;-50
2021/07/16 06:09:16;;;;;;;26.58;16.85;;;;;;;24.51;71.62;101607.03;5084829;28;20055;-50
2021/07/16 06:11:41;;;;;;;31.33;17.13;;;;;;;24.40;71.61;101601.06;5083823;28;20035;-52
2021/07/16 06:14:06;;;;;;;26.40;17.60;;;;;;;24.41;71.54;101603.47;5085414;28;20031;-53
2021/07/16 06:16:32;;;;;;;25.73;16.52;;;;;;;24.54;71.06;101606.38;5084104;28;20427;-51
2021/07/16 06:18:57;;;;;;;30.55;17.83;;;;;;;24.51;71.28;101604.31;5083451;28;20069;-52
2021/07/16 06:21:23;;;;;;;27.42;17.55;;;;;;;24.77;70.95;101609.78;5083956;28;20030;-50
2021/07/16 06:23:48;;;;;;;24.33;16.02;;;;;;;24.79;70.79;101608.34;5083762;28;20027;-50
2021/07/16 06:26:14;;;;;;;26.63;15.73;;;;;;;25.09;70.54;101605.75;5083723;28;20117;-50
2021/07/16 06:28:39;;;;;;;24.58;14.43;;;;;;;25.34;69.95;101609.56;5084212;28;20153;-51
2021/07/16 06:31:05;;;;;;;25.85;15.30;;;;;;;25.54;69.55;101608.88;5084697;28;20027;-50
2021/07/16 06:33:30;;;;;;;23.30;14.77;;;;;;;25.56;69.66;101609.34;5083609;28;20027;-52
2021/07/16 06:35:56;;;;;;;20.70;15.55;;;;;;;25.58;68.21;101605.13;5082993;28;20167;-52
2021/07/16 06:38:21;;;;;;;25.05;15.88;;;;;;;25.48;68.75;101608.22;5084260;28;20069;-52
2021/07/16 06:40:46;;;;;;;26.55;17.10;;;;;;;25.30;68.95;101614.88;5084669;28;20027;-50
2021/07/16 06:43:12;;;;;;;25.00;16.58;;;;;;;25.52;68.18;101614.69;5081796;28;20094;-53
2021/07/16 06:45:38;;;;;;;25.20;15.90;;;;;;;25.78;67.99;101622.03;5084170;28;20069;-51
2021/07/16 06:48:07;;;;;;;22.60;15.77;;;;;;;25.91;67.07;101626.50;5084749;28;20047;-53
2021/07/16 06:50:33;;;;;;;17.90;14.75;;;;;;;26.08;66.12;101628.34;5080488;28;20020;-52
2021/07/16 06:52:59;;;;;;;20.15;15.40;;;;;;;26.08;65.60;101620.91;5084380;28;20042;-52
2021/07/16 06:55:25;;;;;;;22.83;13.98;;;;;;;26.22;65.00;101625.38;5083234;28;20103;-50
2021/07/16 06:57:50;;;;;;;18.80;14.98;;;;;;;26.42;64.47;101628.16;5084349;28;20505;-50
2021/07/16 07:00:16;;;;;;;18.55;14.40;;;;;;;26.58;63.62;101631.13;5084427;28;20023;-50
2021/07/16 07:02:42;;;;;;;18.67;14.63;;;;;;;26.58;62.74;101636.63;5083103;28;20212;-52
2021/07/16 07:05:08;;;;;;;15.75;12.35;;;;;;;26.66;62.85;101635.72;5087063;28;20525;-50
2021/07/16 07:07:34;;;;;;;19.02;13.57;;;;;;;26.85;62.62;101634.44;5088231;28;20025;-51
2021/07/16 07:09:59;;;;;;;21.45;13.45;;;;;;;26.92;62.76;101641.00;5088344;28;20080;-51
2021/07/16 07:12:25;;;;;;;18.58;12.98;;;;;;;27.11;61.63;101637.81;5087308;28;20016;-53
2021/07/16 07:14:52;;;;;;;18.35;12.30;;;;;;;27.39;61.21;101638.78;5088235;28;20069;-51
2021/07/16 07:17:18;;;;;;;21.42;11.93;;;;;;;27.51;61.04;101640.78;5088047;28;20019;-51
2021/07/16 07:19:44;;;;;;;13.95;11.60;;;;;;;27.51;60.34;101631.72;5085327;28;20118;-51
2021/07/16 07:22:09;;;;;;;14.32;10.45;;;;;;;27.35;60.91;101642.56;5087686;28;20051;-51
2021/07/16 07:24:35;;;;;;;16.85;11.18;;;;;;;27.07;60.18;101634.09;5087407;28;20039;-52
2021/07/16 07:27:00;;;;;;;16.15;10.20;;;;;;;27.06;60.01;101638.81;5087670;28;20032;-50
2021/07/16 07:29:26;;;;;;;12.82;10.93;;;;;;;26.94;61.56;101635.19;5086847;28;20431;-52
2021/07/16 07:31:52;;;;;;;17.75;11.50;;;;;;;27.07;61.80;101639.59;5086636;28;20046;-51
2021/07/16 07:34:18;;;;;;;15.30;11.52;;;;;;;27.26;61.21;101642.66;5086667;28;20024;-50
2021/07/16 07:36:47;;;;;;;15.48;11.65;;;;;;;27.31;60.75;101649.91;5087302;28;20040;-51
2021/07/16 07:39:13;;;;;;;15.95;11.00;;;;;;;27.52;60.34;101647.09;5087716;28;20031;-50
2021/07/16 07:41:41;;;;;;;15.30;11.55;;;;;;;27.73;60.22;101641.53;5086847;28;20035;-51
2021/07/16 07:44:06;;;;;;;15.90;10.32;;;;;;;27.61;59.47;101647.78;5088791;28;20039;-53
2021/07/16 07:46:32;;;;;;;14.90;10.27;;;;;;;27.78;59.28;101642.09;5086440;28;20024;-51
2021/07/16 07:48:58;;;;;;;12.60;9.20;;;;;;;28.04;58.78;101639.00;5086220;28;20036;-52
2021/07/16 07:51:23;;;;;;;14.13;10.82;;;;;;;28.19;57.41;101640.28;5086861;28;20061;-54
2021/07/16 07:53:49;;;;;;;13.00;9.93;;;;;;;27.71;57.18;101641.88;5087044;28;20382;-51
2021/07/16 07:56:14;;;;;;;10.93;9.52;;;;;;;28.04;57.68;101643.72;5086598;28;20427;-51
2021/07/16 07:58:40;;;;;;;12.00;8.10;;;;;;;28.34;57.08;101647.84;5087407;28;20051;-50
2021/07/16 08:01:05;;;;;;;12.70;8.43;;;;;;;28.63;55.75;101648.69;5087791;28;20020;-52
2021/07/16 08:03:30;;;;;;;13.02;7.63;;;;;;;28.83;54.91;101651.28;5086289;28;20062;-51
2021/07/16 08:05:56;;;;;;;9.23;6.75;;;;;;;28.99;54.69;101650.56;5066393;28;20032;-53
2021/07/16 08:08:21;;;;;;;11.00;7.70;;;;;;;29.17;54.62;101649.09;5087511;28;20122;-51
2021/07/16 08:10:47;;;;;;;8.75;7.13;;;;;;;29.46;53.61;101647.94;5086686;28;20031;-53
2021/07/16 08:13:12;;;;;;;8.70;7.32;;;;;;;29.85;53.04;101642.59;5086909;28;20048;-51
2021/07/16 08:15:38;;;;;;;11.25;7.85;;;;;;;30.20;52.94;101642.66;5085697;28;20023;-52
2021/07/16 08:18:03;;;;;;;14.88;7.30;;;;;;;30.40;51.66;101640.72;5087321;28;20466;-51
2021/07/16 08:20:29;;;;;;;9.98;6.20;;;;;;;30.54;50.35;101641.84;5084969;28;20118;-53
2021/07/16 08:22:54;;;;;;;10.45;6.70;;;;;;;30.66;49.97;101641.72;5087042;28;20070;-53
2021/07/16 08:25:20;;;;;;;11.93;7.10;;;;;;;30.73;49.86;101643.84;5086948;28;20027;-54
2021/07/16 08:27:46;;;;;;;11.10;6.88;;;;;;;30.74;49.93;101641.88;5085192;28;20031;-53
2021/07/16 08:30:12;;;;;;;11.80;6.60;;;;;;;30.79;49.25;101647.13;5087090;28;20024;-53
2021/07/16 08:32:38;;;;;;;9.63;6.82;;;;;;;30.89;50.27;101652.88;5085446;28;20031;-51
2021/07/16 08:35:05;;;;;;;13.52;6.65;;;;;;;29.84;49.54;101643.75;5076638;28;20028;-51
2021/07/16 08:37:31;;;;;;;11.55;6.78;;;;;;;30.33;50.00;101642.16;5085591;28;20032;-53
2021/07/16 08:39:57;;;;;;;13.68;6.30;;;;;;;30.51;49.42;101647.28;5086647;28;20362;-53
2021/07/16 08:42:26;;;;;;;8.10;5.45;;;;;;;30.76;48.89;101640.34;5076744;28;20024;-54
2021/07/16 08:44:52;;;;;;;11.00;5.63;;;;;;;30.86;46.91;101636.97;5084346;28;20081;-51
2021/07/16 08:47:19;;;;;;;6.88;4.88;;;;;;;30.80;46.46;101632.91;5086211;28;20024;-52
2021/07/16 08:49:45;;;;;;;10.05;5.82;;;;;;;30.89;48.00;101633.50;5084901;28;20110;-51
2021/07/16 08:52:12;;;;;;;8.57;5.45;;;;;;;31.03;47.55;101629.41;5086334;28;20031;-51
2021/07/16 08:54:44;;;;;;;11.90;5.78;;;;;;;31.11;47.49;101631.94;5085713;28;20035;-53
2021/07/16 08:57:11;;;;;;;9.25;5.38;;;;;;;31.36;47.14;101629.66;5086153;28;20481;-51
2021/07/16 08:59:37;;;;;;;10.68;4.57;;;;;;;31.40;44.76;101626.94;5085446;28;20031;-54
2021/07/16 09:02:04;;;;;;;6.03;3.55;;;;;;;31.59;44.26;101635.19;5083826;28;20024;-51
2021/07/16 09:04:36;;;;;;;5.70;4.10;;;;;;;31.52;45.26;101633.09;5082716;28;20106;-52
2021/07/16 09:07:02;;;;;;;6.05;4.10;;;;;;;31.63;43.73;101621.41;5085565;28;20489;-52
2021/07/16 09:09:36;;;;;;;7.07;4.32;;;;;;;31.79;44.37;101624.88;5085595;28;20062;-53
2021/07/16 09:12:06;;;;;;;13.13;5.07;;;;;;;31.92;44.05;101634.56;5084053;28;20131;-51
2021/07/16 09:14:32;;;;;;;6.38;4.40;;;;;;;32.11;43.37;101628.13;5085173;28;20055;-50
2021/07/16 09:17:02;;;;;;;9.27;4.50;;;;;;;32.28;43.49;101615.72;5085631;28;20031;-51
2021/07/16 09:19:35;;;;;;;10.88;4.35;;;;;;;32.14;43.48;101627.41;5084817;28;20057;-50
2021/07/16 09:22:09;;;;;;;5.53;4.63;;;;;;;31.50;42.18;101632.69;5082730;28;20063;-53
2021/07/16 09:24:38;;;;;;;9.23;4.28;;;;;;;31.63;44.26;101629.72;5085364;28;20047;-48
2021/07/16 09:27:33;;;;;;;8.25;4.35;;;;;;;32.00;46.46;101630.75;5085335;28;20028;-51
2021/07/16 09:30:24;;;;;;;5.72;3.97;;;;;;;32.38;43.81;101629.72;5085274;28;20568;-52
2021/07/16 09:33:00;;;;;;;9.23;4.10;;;;;;;32.68;41.83;101632.50;5084874;28;20300;-49
2021/07/16 09:35:38;;;;;;;5.93;4.38;;;;;;;32.69;42.20;101631.31;5085085;28;20027;-50
2021/07/16 09:38:12;;;;;;;8.05;4.22;;;;;;;33.00;41.40;101630.09;5083238;28;20024;-49
2021/07/16 09:40:46;;;;;;;5.45;3.95;;;;;;;32.85;41.56;101630.31;5085233;28;20024;-49
2021/07/16 09:43:11;;;;;;;4.53;3.40;;;;;;;33.03;41.11;101618.22;5084869;28;20024;-51
2021/07/16 09:45:42;;;;;;;6.65;4.18;;;;;;;32.69;40.46;101623.00;5084624;28;20489;-52
2021/07/16 09:48:21;;;;;;;4.80;3.95;;;;;;;32.70;40.08;101632.94;5085788;28;20038;-51
2021/07/16 09:50:47;;;;;;;5.30;4.28;;;;;;;32.96;40.29;101618.19;5084871;28;20038;-49
2021/07/16 09:53:15;;;;;;;5.93;3.55;;;;;;;33.06;39.92;101619.47;5083861;28;20401;-49
2021/07/16 09:55:41;;;;;;;6.00;3.42;;;;;;;33.43;39.54;101615.88;5065327;28;20103;-49
2021/07/16 09:58:22;;;;;;;6.97;4.22;;;;;;;33.47;39.91;101619.50;5085524;28;20105;-50
2021/07/16 10:00:50;;;;;;;4.95;3.80;;;;;;;33.74;38.29;101612.56;5084501;28;20028;-52
2021/07/16 10:03:17;;;;;;;5.75;3.45;;;;;;;34.33;38.12;101618.91;5084876;28;20052;-52
2021/07/16 10:05:43;;;;;;;5.28;3.78;;;;;;;34.36;37.21;101620.94;5083836;28;20381;-50
2021/07/16 10:08:08;;;;;;;6.13;3.65;;;;;;;34.35;36.27;101624.91;5083844;28;20020;-52
2021/07/16 10:10:34;;;;;;;7.60;4.13;;;;;;;34.39;37.37;101620.16;5083874;28;20403;-49
2021/07/16 10:13:01;;;;;;;6.30;4.18;;;;;;;33.94;36.03;101621.47;5084566;28;20071;-50
2021/07/16 10:15:27;;;;;;;8.40;4.10;;;;;;;33.97;36.58;101619.91;5084017;28;20470;-49
2021/07/16 10:17:53;;;;;;;7.28;4.50;;;;;;;34.44;36.74;101616.22;5085543;28;20024;-52
2021/07/16 10:20:19;;;;;;;7.55;4.15;;;;;;;34.57;36.54;101614.69;5056589;28;20024;-52
2021/07/16 10:22:47;;;;;;;5.13;3.83;;;;;;;34.61;36.68;101620.25;5081235;28;20032;-52
2021/07/16 10:25:16;;;;;;;6.57;3.70;;;;;;;34.61;36.30;101609.13;5081664;28;20024;-51
2021/07/16 10:27:43;;;;;;;8.73;3.95;;;;;;;34.32;36.20;101614.56;5083410;28;20055;-52
2021/07/16 10:30:11;;;;;;;6.50;3.83;;;;;;;34.69;37.32;101614.34;5084867;28;20028;-52
2021/07/16 10:32:50;;;;;;;5.65;3.90;;;;;;;34.95;37.11;101612.44;5083668;28;20111;-52
2021/07/16 10:35:26;;;;;;;4.10;3.70;;;;;;;34.84;36.29;101615.97;5082351;28;20016;-52
2021/07/16 10:37:59;;;;;;;7.38;4.47;;;;;;;34.59;34.95;101608.72;5083762;28;20043;-52
2021/07/16 10:40:37;;;;;;;4.80;3.65;;;;;;;33.68;37.30;101604.97;5083335;28;20020;-52
2021/07/16 10:43:08;;;;;;;7.30;4.03;;;;;;;33.79;36.68;101623.34;5061559;28;20039;-52
2021/07/16 10:45:38;;;;;;;10.38;3.95;;;;;;;33.83;36.34;101615.81;5083857;28;20046;-52
2021/07/16 10:48:17;;;;;;;10.07;4.07;;;;;;;33.57;36.36;101618.75;5084193;28;20020;-52
2021/07/16 10:50:45;;;;;;;5.40;3.72;;;;;;;33.55;38.33;101623.91;5081820;28;20138;-52
2021/07/16 10:53:40;;;;;;;9.75;4.30;;;;;;;33.04;37.56;101625.41;5083768;28;20058;-49
2021/07/16 10:56:09;;;;;;;7.75;3.90;;;;;;;33.78;37.98;101624.50;5083186;28;20032;-49
2021/07/16 10:58:38;;;;;;;5.88;3.78;;;;;;;34.02;37.01;101611.19;5083361;28;20053;-50
2021/07/16 11:01:06;;;;;;;7.13;4.07;;;;;;;34.25;37.20;101625.63;5084464;28;20028;-52
2021/07/16 11:03:43;;;;;;;9.77;4.18;;;;;;;33.46;37.12;101629.00;5082854;28;20036;-51
2021/07/16 11:06:10;;;;;;;7.15;4.35;;;;;;;32.15;39.81;101631.75;5083010;28;20024;-51
2021/07/16 11:08:39;;;;;;;8.25;4.20;;;;;;;32.04;40.29;101634.38;5083147;28;20077;-50
2021/07/16 11:11:12;;;;;;;6.80;4.22;;;;;;;31.77;41.27;101630.78;5084067;28;20039;-50
2021/07/16 11:13:46;;;;;;;6.50;4.35;;;;;;;31.55;42.05;101628.78;5083492;28;20027;-49
2021/07/16 11:16:30;;;;;;;6.32;4.30;;;;;;;32.00;41.65;101629.94;5083820;28;20610;-48